TimeCST,TemperatureF,Dew PointF,Humidity,Sea Level PressureIn,VisibilityMPH,Wind Direction,Wind SpeedMPH,Gust SpeedMPH,PrecipitationIn,Events,Conditions,WindDirDegrees,DateUTC
1:53 AM,36.0,34.0,93,30.32,6.0,Calm,Calm,-,N/A,,Clear,0,2012-11-18 07:53:00
2:53 AM,36.0,32.0,86,30.32,9.0,Calm,Calm,-,N/A,,Clear,0,2012-11-18 08:53:00
3:53 AM,33.1,30.9,92,30.33,6.0,Calm,Calm,-,N/A,,Clear,0,2012-11-18 09:53:00
4:53 AM,34.0,32.0,92,30.33,8.0,Calm,Calm,-,N/A,,Clear,0,2012-11-18 10:53:00
5:53 AM,33.1,30.0,89,30.35,7.0,Calm,Calm,-,N/A,,Clear,0,2012-11-18 11:53:00
6:53 AM,33.1,30.9,92,30.35,7.0,Calm,Calm,-,N/A,,Clear,0,2012-11-18 12:53:00
7:53 AM,42.1,37.0,82,30.37,9.0,Calm,Calm,-,N/A,,Clear,0,2012-11-18 13:53:00
8:53 AM,51.1,39.9,66,30.38,10.0,Calm,Calm,-,N/A,,Clear,0,2012-11-18 14:53:00
9:53 AM,57.0,39.0,51,30.37,10.0,ESE,8.1,-,N/A,,Clear,110,2012-11-18 15:53:00
10:53 AM,61.0,37.9,42,30.35,10.0,ENE,10.4,-,N/A,,Clear,70,2012-11-18 16:53:00
11:53 AM,63.0,37.9,40,30.32,10.0,ENE,6.9,-,N/A,,Clear,70,2012-11-18 17:53:00
12:53 PM,64.9,37.9,37,30.28,10.0,Variable,6.9,-,N/A,,Clear,0,2012-11-18 18:53:00
1:53 PM,66.9,37.0,33,30.28,10.0,NNE,5.8,-,N/A,,Clear,30,2012-11-18 19:53:00
2:53 PM,66.9,37.0,33,30.27,10.0,Calm,Calm,-,N/A,,Clear,0,2012-11-18 20:53:00
3:53 PM,66.0,37.9,36,30.28,10.0,NNE,5.8,-,N/A,,Clear,30,2012-11-18 21:53:00
4:53 PM,60.1,41.0,49,30.29,10.0,Calm,Calm,-,N/A,,Clear,0,2012-11-18 22:53:00
5:53 PM,52.0,43.0,71,30.30,10.0,Calm,Calm,-,N/A,,Clear,0,2012-11-18 23:53:00
6:53 PM,48.0,42.1,80,30.30,10.0,Calm,Calm,-,N/A,,Clear,0,2012-11-19 00:53:00
7:53 PM,46.0,41.0,83,30.31,10.0,Calm,Calm,-,N/A,,Clear,0,2012-11-19 01:53:00
8:53 PM,43.0,39.9,89,30.32,10.0,Calm,Calm,-,N/A,,Clear,0,2012-11-19 02:53:00
9:53 PM,42.1,39.0,89,30.33,10.0,Calm,Calm,-,N/A,,Clear,0,2012-11-19 03:53:00
11:53 PM,39.9,37.0,89,30.31,10.0,Calm,Calm,-,N/A,,Clear,0,2012-11-19 05:53:00